createdAt,value
2022-11-02T00:02:17.719Z,19.83
2022-11-02T00:04:45.020Z,20.58
2022-11-02T00:07:12.702Z,20.23
2022-11-02T00:09:40.507Z,20.45
2022-11-02T00:12:07.897Z,20.27
2022-11-02T00:14:35.204Z,18.75
2022-11-02T00:17:02.836Z,19.63
2022-11-02T00:19:31.063Z,20.02
2022-11-02T00:21:59.261Z,19.83
2022-11-02T00:24:26.687Z,19.38
2022-11-02T00:26:55.326Z,19.33
2022-11-02T00:29:24.536Z,19.95
2022-11-02T00:31:52.138Z,21.20
2022-11-02T00:34:19.469Z,20.27
2022-11-02T00:36:49.599Z,20.10
2022-11-02T00:39:20.691Z,20.35
2022-11-02T00:41:47.844Z,20.20
2022-11-02T00:44:15.347Z,20.08
2022-11-02T00:46:42.962Z,19.10
2022-11-02T00:49:10.780Z,20.20
2022-11-02T00:51:38.774Z,19.05
2022-11-02T00:54:06.233Z,18.83
2022-11-02T00:56:34.208Z,18.77
2022-11-02T00:59:04.247Z,19.52
2022-11-02T01:01:32.512Z,19.15
2022-11-02T01:04:00.402Z,20.48
2022-11-02T01:06:28.051Z,18.90
2022-11-02T01:08:55.630Z,19.80
2022-11-02T01:11:25.231Z,18.80
2022-11-02T01:13:53.174Z,19.23
2022-11-02T01:16:41.376Z,20.15
2022-11-02T01:19:08.990Z,18.73
2022-11-02T01:21:36.364Z,19.85
2022-11-02T01:24:04.106Z,20.23
2022-11-02T01:26:32.657Z,20.90
2022-11-02T01:28:59.959Z,19.80
2022-11-02T01:31:28.180Z,21.90
2022-11-02T01:33:55.682Z,23.50
2022-11-02T01:38:56.056Z,24.38
2022-11-02T01:41:23.609Z,22.73
2022-11-02T01:43:55.510Z,20.80
2022-11-02T01:46:44.645Z,21.23
2022-11-02T01:49:16.675Z,22.80
2022-11-02T01:51:57.727Z,24.48
2022-11-02T01:54:38.191Z,22.88
2022-11-02T01:57:08.512Z,24.30
2022-11-02T01:59:43.793Z,23.50
2022-11-02T02:02:18.689Z,24.65
2022-11-02T02:04:51.317Z,23.23
2022-11-02T02:07:19.787Z,25.17
2022-11-02T02:09:50.390Z,22.90
2022-11-02T02:12:19.974Z,24.63
2022-11-02T02:14:47.718Z,23.75
2022-11-02T02:17:37.614Z,23.23
2022-11-02T02:20:35.275Z,23.83
2022-11-02T02:23:05.439Z,22.75
2022-11-02T02:26:05.939Z,23.33
2022-11-02T02:28:39.686Z,20.92
2022-11-02T02:34:21.325Z,20.27
2022-11-02T02:37:30.167Z,19.05
2022-11-02T02:40:03.289Z,20.70
2022-11-02T02:42:41.363Z,21.73
2022-11-02T02:45:32.346Z,21.45
2022-11-02T02:48:10.322Z,20.08
2022-11-02T02:51:13.225Z,19.75
2022-11-02T02:53:57.832Z,21.38
2022-11-02T02:56:30.703Z,20.85
2022-11-02T02:59:03.014Z,20.90
2022-11-02T03:01:32.321Z,20.50
2022-11-02T03:03:59.817Z,20.77
2022-11-02T03:06:32.807Z,20.88
2022-11-02T03:09:19.317Z,20.35
2022-11-02T03:11:57.880Z,20.13
2022-11-02T03:15:11.339Z,21.83
2022-11-02T03:18:11.673Z,19.23
2022-11-02T03:21:23.046Z,19.90
2022-11-02T03:24:05.002Z,20.45
2022-11-02T03:26:46.786Z,19.80
2022-11-02T03:29:22.187Z,20.02
2022-11-02T03:32:00.643Z,19.67
2022-11-02T03:34:38.820Z,19.00
2022-11-02T03:37:20.332Z,19.05
2022-11-02T03:39:59.302Z,18.38
2022-11-02T03:42:31.244Z,17.10
2022-11-02T03:45:11.877Z,16.95
2022-11-02T03:47:41.052Z,18.25
2022-11-02T03:50:14.181Z,15.80
2022-11-02T03:52:45.562Z,17.00
2022-11-02T03:55:26.165Z,17.40
2022-11-02T03:57:54.792Z,17.70
2022-11-02T04:00:29.815Z,16.50
2022-11-02T04:03:07.252Z,16.50
2022-11-02T04:05:39.114Z,16.48
2022-11-02T04:08:45.380Z,15.15
2022-11-02T04:11:31.963Z,15.82
2022-11-02T04:14:23.031Z,17.60
2022-11-02T04:17:11.122Z,18.27
2022-11-02T04:19:41.391Z,18.40
2022-11-02T04:22:30.558Z,18.35
2022-11-02T04:25:21.104Z,19.00
2022-11-02T04:28:14.341Z,18.20
2022-11-02T04:30:48.632Z,18.60
2022-11-02T04:33:34.743Z,19.02
2022-11-02T04:36:09.592Z,18.75
2022-11-02T04:38:42.688Z,18.33
2022-11-02T04:41:44.801Z,20.05
2022-11-02T04:44:26.288Z,19.83
2022-11-02T04:47:03.094Z,19.67
2022-11-02T04:49:32.702Z,20.60
2022-11-02T04:51:59.878Z,20.38
2022-11-02T04:54:29.401Z,20.90
2022-11-02T04:57:00.991Z,20.33
2022-11-02T04:59:29.836Z,19.65
2022-11-02T05:01:58.524Z,20.77
2022-11-02T05:04:25.921Z,20.40
2022-11-02T05:06:56.396Z,19.85
2022-11-02T05:11:54.332Z,18.45
2022-11-02T05:14:21.893Z,20.83
2022-11-02T05:16:49.341Z,20.25
2022-11-02T05:19:16.555Z,19.23
2022-11-02T05:21:44.438Z,19.17
2022-11-02T05:24:12.431Z,19.60
2022-11-02T05:26:39.887Z,22.48
2022-11-02T05:29:09.612Z,21.48
2022-11-02T05:31:37.559Z,23.10
2022-11-02T05:34:04.872Z,23.00
2022-11-02T05:36:32.143Z,23.30
2022-11-02T05:38:59.571Z,21.92
2022-11-02T05:41:27.361Z,22.67
2022-11-02T05:43:56.438Z,24.23
2022-11-02T05:46:25.547Z,24.33
2022-11-02T05:48:52.923Z,23.88
2022-11-02T05:51:20.122Z,24.48
2022-11-02T05:53:47.227Z,24.75
2022-11-02T05:56:14.872Z,24.58
2022-11-02T05:58:42.368Z,26.30
2022-11-02T06:01:10.731Z,26.67
2022-11-02T06:03:38.141Z,26.95
2022-11-02T06:06:07.878Z,19.92
2022-11-02T06:08:36.148Z,166.23
2022-11-02T06:11:06.957Z,106.78
2022-11-02T06:13:34.604Z,42.22
2022-11-02T06:16:03.842Z,30.95
2022-11-02T06:18:34.634Z,28.60
2022-11-02T06:21:02.355Z,32.53
2022-11-02T06:23:30.230Z,30.92
2022-11-02T06:25:59.416Z,32.47
2022-11-02T06:28:27.788Z,38.00
2022-11-02T06:30:55.539Z,39.97
2022-11-02T06:33:23.330Z,44.25
2022-11-02T06:35:52.621Z,38.17
2022-11-02T06:38:20.403Z,43.78
2022-11-02T06:40:55.867Z,39.17
2022-11-02T06:43:24.268Z,41.97
2022-11-02T06:45:55.921Z,34.75
2022-11-02T06:48:23.606Z,32.50
2022-11-02T06:50:51.213Z,32.20
2022-11-02T06:53:18.777Z,33.53
2022-11-02T06:55:51.359Z,31.45
2022-11-02T06:58:18.627Z,28.00
2022-11-02T07:00:45.891Z,28.88
2022-11-02T07:03:13.417Z,27.08
2022-11-02T07:05:40.739Z,26.23
2022-11-02T07:08:07.952Z,24.65
2022-11-02T07:10:36.025Z,24.77
2022-11-02T07:13:04.124Z,24.88
2022-11-02T07:15:31.582Z,23.92
2022-11-02T07:17:59.079Z,24.60
2022-11-02T07:20:26.577Z,23.25
2022-11-02T07:22:56.703Z,23.55
2022-11-02T07:25:25.403Z,23.98
2022-11-02T07:27:53.377Z,23.35
2022-11-02T07:30:21.064Z,23.52
2022-11-02T07:32:48.580Z,24.45
2022-11-02T07:35:17.849Z,24.25
2022-11-02T07:37:45.247Z,23.60
2022-11-02T07:40:16.107Z,25.48
2022-11-02T07:42:49.118Z,25.85
2022-11-02T07:45:21.899Z,25.00
2022-11-02T07:47:50.039Z,24.73
2022-11-02T07:50:19.843Z,25.23
2022-11-02T07:52:49.347Z,23.50
2022-11-02T07:55:18.549Z,24.17
2022-11-02T07:57:57.897Z,22.45
2022-11-02T08:00:27.181Z,23.30
2022-11-02T08:02:55.907Z,22.48
2022-11-02T08:05:24.038Z,23.95
2022-11-02T08:07:58.919Z,22.50
2022-11-02T08:10:26.848Z,21.25
2022-11-02T08:12:54.891Z,21.70
2022-11-02T08:15:22.358Z,24.27
2022-11-02T08:18:04.061Z,23.52
2022-11-02T08:20:32.810Z,23.30
2022-11-02T08:23:00.018Z,23.17
2022-11-02T08:25:27.516Z,23.30
2022-11-02T08:27:59.905Z,24.58
2022-11-02T08:30:29.054Z,24.13
2022-11-02T08:33:02.623Z,21.25
2022-11-02T08:35:29.931Z,22.05
2022-11-02T08:37:58.271Z,23.52
2022-11-02T08:40:26.324Z,23.02
2022-11-02T08:43:00.936Z,22.55
2022-11-02T08:45:35.105Z,22.77
2022-11-02T08:48:10.086Z,22.83
2022-11-02T08:50:37.561Z,20.40
2022-11-02T08:53:05.499Z,21.42
2022-11-02T08:55:32.707Z,20.33
2022-11-02T08:58:00.708Z,21.23
2022-11-02T09:00:32.974Z,19.00
2022-11-02T09:03:08.896Z,17.30
2022-11-02T09:05:39.201Z,17.70
2022-11-02T09:08:09.997Z,14.85
2022-11-02T09:10:37.958Z,15.10
2022-11-02T09:13:07.875Z,13.63
2022-11-02T09:15:36.992Z,11.57
2022-11-02T09:18:06.088Z,11.63
2022-11-02T09:20:33.800Z,10.23
2022-11-02T09:23:01.128Z,10.65
2022-11-02T09:25:28.971Z,10.52
2022-11-02T09:27:58.004Z,10.45
2022-11-02T09:30:26.961Z,8.30
2022-11-02T09:33:02.769Z,6.78
2022-11-02T09:35:32.800Z,6.00
2022-11-02T09:38:00.299Z,5.75
2022-11-02T09:40:52.215Z,5.82
2022-11-02T09:43:32.091Z,5.68
2022-11-02T09:46:06.676Z,6.10
2022-11-02T09:48:45.516Z,5.78
2022-11-02T09:51:15.404Z,5.78
2022-11-02T09:53:53.179Z,5.72
2022-11-02T09:56:20.527Z,6.55
2022-11-02T09:58:56.415Z,6.13
2022-11-02T10:01:38.543Z,5.63
2022-11-02T10:04:06.006Z,4.95
2022-11-02T10:06:38.173Z,5.07
2022-11-02T10:09:40.728Z,5.28
2022-11-02T10:12:35.497Z,4.50
2022-11-02T10:15:09.547Z,5.22
2022-11-02T10:17:40.072Z,4.93
2022-11-02T10:20:28.475Z,5.32
2022-11-02T10:23:03.632Z,5.25
2022-11-02T10:25:31.124Z,4.50
2022-11-02T10:28:10.390Z,4.85
2022-11-02T10:30:38.564Z,4.45
2022-11-02T10:33:16.812Z,4.90
2022-11-02T10:36:18.474Z,4.55
2022-11-02T10:39:09.986Z,4.32
2022-11-02T10:42:14.557Z,4.70
2022-11-02T10:45:08.861Z,4.35
2022-11-02T10:48:01.237Z,4.88
2022-11-02T10:50:46.606Z,4.53
2022-11-02T10:56:19.917Z,4.60
2022-11-02T10:58:58.486Z,5.28
2022-11-02T11:01:26.841Z,4.88
2022-11-02T11:04:20.709Z,5.03
2022-11-02T11:06:48.269Z,6.28
2022-11-02T11:09:15.751Z,6.07
2022-11-02T11:11:54.558Z,5.57
2022-11-02T11:20:33.741Z,4.88
2022-11-02T11:23:10.566Z,3.70
2022-11-02T11:25:40.500Z,3.63
2022-11-02T11:28:52.210Z,4.05
2022-11-02T11:31:19.978Z,3.83
2022-11-02T11:33:50.928Z,4.43
2022-11-02T11:36:28.407Z,4.75
2022-11-02T11:39:00.167Z,4.65
2022-11-02T11:41:28.358Z,4.22
2022-11-02T11:43:55.714Z,4.03
2022-11-02T11:46:23.749Z,3.55
2022-11-02T11:48:54.912Z,3.95
2022-11-02T11:51:35.343Z,3.15
2022-11-02T11:54:31.212Z,3.97
2022-11-02T11:57:29.681Z,3.72
2022-11-02T12:00:01.219Z,3.33
2022-11-02T12:02:38.003Z,3.42
2022-11-02T12:05:21.079Z,3.55
2022-11-02T12:07:59.403Z,3.95
2022-11-02T12:10:56.668Z,3.50
2022-11-02T12:14:01.619Z,3.25
2022-11-02T12:16:56.553Z,3.58
2022-11-02T12:19:29.762Z,3.25
2022-11-02T12:22:29.288Z,2.88
2022-11-02T12:25:15.566Z,3.47
2022-11-02T12:27:52.774Z,6.70
2022-11-02T12:30:38.744Z,9.40
2022-11-02T12:34:13.916Z,10.73
2022-11-02T12:37:31.756Z,12.63
2022-11-02T12:40:01.689Z,13.45
2022-11-02T12:42:32.320Z,11.10
2022-11-02T12:45:18.277Z,9.88
2022-11-02T12:47:48.252Z,9.43
2022-11-02T12:50:15.586Z,8.35
2022-11-02T12:53:06.460Z,7.03
2022-11-02T12:55:38.947Z,7.70
2022-11-02T12:58:11.271Z,7.15
2022-11-02T13:00:43.139Z,7.10
2022-11-02T13:03:55.450Z,6.43
2022-11-02T13:06:30.546Z,5.97
2022-11-02T13:09:19.276Z,5.30
2022-11-02T13:11:53.640Z,6.13
2022-11-02T13:14:24.450Z,6.15
2022-11-02T13:17:11.860Z,5.70
2022-11-02T13:19:51.228Z,4.93
2022-11-02T13:22:21.416Z,5.68
2022-11-02T13:24:53.354Z,5.93
2022-11-02T13:27:36.493Z,5.90
2022-11-02T13:30:16.131Z,6.70
2022-11-02T13:33:01.439Z,6.63
2022-11-02T13:35:37.836Z,6.60
2022-11-02T13:41:35.301Z,7.22
2022-11-02T13:44:20.498Z,7.15
2022-11-02T13:47:15.509Z,6.78
2022-11-02T13:49:54.820Z,7.32
2022-11-02T13:52:49.378Z,7.93
2022-11-02T13:55:22.197Z,7.22
2022-11-02T13:57:59.228Z,7.10
2022-11-02T14:00:26.256Z,7.38
2022-11-02T14:03:00.654Z,7.53
2022-11-02T14:05:35.825Z,8.07
2022-11-02T14:08:07.991Z,7.40
2022-11-02T14:10:41.031Z,7.45
2022-11-02T14:13:17.402Z,7.18
2022-11-02T14:15:44.541Z,8.38
2022-11-02T14:18:27.344Z,8.00
2022-11-02T14:20:54.489Z,7.87
2022-11-02T14:23:36.551Z,7.78
2022-11-02T14:26:03.951Z,8.02
2022-11-02T14:28:34.131Z,7.90
2022-11-02T14:31:04.328Z,7.80
2022-11-02T14:34:17.646Z,8.38
2022-11-02T14:37:20.242Z,7.70
2022-11-02T14:40:11.223Z,9.07
2022-11-02T14:43:00.018Z,8.85
2022-11-02T14:45:52.664Z,8.38
2022-11-02T14:48:20.306Z,7.97
2022-11-02T14:51:14.609Z,8.30
2022-11-02T14:53:42.424Z,8.60
2022-11-02T14:56:09.852Z,8.00
2022-11-02T14:58:48.469Z,6.90
2022-11-02T15:01:17.004Z,6.13
2022-11-02T15:03:48.282Z,6.15
2022-11-02T15:06:23.746Z,5.13
2022-11-02T15:09:04.255Z,5.88
2022-11-02T15:11:49.815Z,4.85
2022-11-02T15:14:42.821Z,6.55
2022-11-02T15:17:13.114Z,6.13
2022-11-02T15:19:44.340Z,6.63
2022-11-02T15:22:36.571Z,8.80
2022-11-02T15:25:16.149Z,11.43
2022-11-02T15:27:45.379Z,7.88
2022-11-02T15:30:23.909Z,7.30
2022-11-02T15:33:06.994Z,5.57
2022-11-02T15:35:37.782Z,5.45
2022-11-02T15:38:29.517Z,5.35
2022-11-02T15:41:06.250Z,4.72
2022-11-02T15:43:52.571Z,6.07
2022-11-02T15:46:30.112Z,4.75
2022-11-02T15:49:14.613Z,4.60
2022-11-02T15:52:03.391Z,5.53
2022-11-02T15:54:33.597Z,5.97
2022-11-02T15:57:15.569Z,6.03
2022-11-02T16:00:08.241Z,5.40
2022-11-02T16:02:42.405Z,5.45
2022-11-02T16:05:20.926Z,15.80
2022-11-02T16:08:09.948Z,13.40
2022-11-02T16:10:38.495Z,10.68
2022-11-02T16:13:17.322Z,8.93
2022-11-02T16:15:46.273Z,7.88
2022-11-02T16:18:29.351Z,7.60
2022-11-02T16:21:02.547Z,4.78
2022-11-02T16:23:47.624Z,5.05
2022-11-02T16:26:22.149Z,4.30
2022-11-02T16:28:52.727Z,4.53
2022-11-02T16:31:31.268Z,5.60
2022-11-02T16:34:01.468Z,5.97
2022-11-02T16:36:32.345Z,5.47
2022-11-02T16:39:02.462Z,5.10
2022-11-02T16:41:32.118Z,5.28
2022-11-02T16:44:08.195Z,4.32
2022-11-02T16:46:42.440Z,4.78
2022-11-02T16:49:16.667Z,4.63
2022-11-02T16:51:59.958Z,4.35
2022-11-02T16:57:11.487Z,9.90
2022-11-02T16:59:56.006Z,5.32
2022-11-02T17:02:39.612Z,19.05
2022-11-02T17:05:17.084Z,14.75
2022-11-02T17:07:50.616Z,4.90
2022-11-02T17:10:26.230Z,4.75
2022-11-02T17:12:56.958Z,5.07
2022-11-02T17:15:29.704Z,5.05
2022-11-02T17:18:09.868Z,5.15
2022-11-02T17:20:39.618Z,4.60
2022-11-02T17:23:27.796Z,5.80
2022-11-02T17:26:14.909Z,5.30
2022-11-02T17:28:45.251Z,4.75
2022-11-02T17:31:32.709Z,5.00
2022-11-02T17:34:16.513Z,5.80
2022-11-02T17:36:49.972Z,6.50
2022-11-02T17:39:19.883Z,5.67
2022-11-02T17:42:11.842Z,5.13
2022-11-02T17:44:39.691Z,5.07
2022-11-02T17:47:13.475Z,5.72
2022-11-02T17:49:41.019Z,5.57
2022-11-02T17:52:13.320Z,5.43
2022-11-02T17:54:40.955Z,5.50
2022-11-02T17:57:16.195Z,5.68
2022-11-02T17:59:44.073Z,6.25
2022-11-02T18:02:13.944Z,6.35
2022-11-02T18:04:41.411Z,6.32
2022-11-02T18:07:09.390Z,7.00
2022-11-02T18:09:36.617Z,6.03
2022-11-02T18:12:04.094Z,5.47
2022-11-02T18:14:31.552Z,5.97
2022-11-02T18:16:58.676Z,5.78
2022-11-02T18:19:25.895Z,6.38
2022-11-02T18:21:53.356Z,6.80
2022-11-02T18:24:20.541Z,7.15
2022-11-02T18:26:51.627Z,6.32
2022-11-02T18:29:22.450Z,5.90
2022-11-02T18:31:51.014Z,11.65
2022-11-02T18:34:18.177Z,16.02
2022-11-02T18:36:45.322Z,14.48
2022-11-02T18:39:12.614Z,6.28
2022-11-02T18:41:40.545Z,6.07
2022-11-02T18:44:13.794Z,7.07
2022-11-02T18:46:42.168Z,6.60
2022-11-02T18:49:09.973Z,7.20
2022-11-02T18:51:37.378Z,6.47
2022-11-02T18:54:06.137Z,6.75
2022-11-02T18:56:33.756Z,7.18
2022-11-02T18:59:01.629Z,7.22
2022-11-02T19:01:28.878Z,6.47
2022-11-02T19:03:58.519Z,7.80
2022-11-02T19:06:45.779Z,6.70
2022-11-02T19:09:21.401Z,7.43
2022-11-02T19:11:54.591Z,7.25
2022-11-02T19:14:23.181Z,7.72
2022-11-02T19:16:50.425Z,7.65
2022-11-02T19:19:17.738Z,8.15
2022-11-02T19:21:45.106Z,8.05
2022-11-02T19:24:12.430Z,8.93
2022-11-02T19:26:39.656Z,8.30
2022-11-02T19:29:07.079Z,7.40
2022-11-02T19:31:35.678Z,7.68
2022-11-02T19:34:04.189Z,7.32
2022-11-02T19:36:32.229Z,59.05
2022-11-02T19:39:00.263Z,81.63
2022-11-02T19:41:27.533Z,26.20
2022-11-02T19:43:54.643Z,8.82
2022-11-02T19:46:22.822Z,6.70
2022-11-02T19:48:50.740Z,6.80
2022-11-02T19:51:23.546Z,8.05
2022-11-02T19:53:53.036Z,7.03
2022-11-02T19:56:21.657Z,6.53
2022-11-02T19:58:51.221Z,6.95
2022-11-02T20:01:27.609Z,6.38
2022-11-02T20:03:55.911Z,6.68
2022-11-02T20:06:37.450Z,6.72
2022-11-02T20:09:07.066Z,8.48
2022-11-02T20:11:36.223Z,7.25
2022-11-02T20:14:05.151Z,6.75
2022-11-02T20:16:32.599Z,6.97
2022-11-02T20:19:00.039Z,7.15
2022-11-02T20:21:35.686Z,7.03
2022-11-02T20:24:08.025Z,8.00
2022-11-02T20:26:37.002Z,6.95
2022-11-02T20:29:06.500Z,7.28
2022-11-02T20:31:35.836Z,6.40
2022-11-02T20:34:04.883Z,7.35
2022-11-02T20:36:32.254Z,7.15
2022-11-02T20:38:59.726Z,7.50
2022-11-02T20:41:27.591Z,7.22
2022-11-02T20:43:55.946Z,7.45
2022-11-02T20:46:39.065Z,11.77
2022-11-02T20:49:21.009Z,11.48
2022-11-02T20:51:55.577Z,7.20
2022-11-02T20:54:23.011Z,7.50
2022-11-02T20:56:50.574Z,10.77
2022-11-02T20:59:18.323Z,7.80
2022-11-02T21:01:46.248Z,7.70
2022-11-02T21:04:32.144Z,7.95
2022-11-02T21:06:59.795Z,7.90
2022-11-02T21:09:27.107Z,6.57
2022-11-02T21:12:12.854Z,7.57
2022-11-02T21:14:40.123Z,7.28
2022-11-02T21:17:07.344Z,7.97
2022-11-02T21:19:34.995Z,7.63
2022-11-02T21:22:02.911Z,7.80
2022-11-02T21:24:30.402Z,7.80
2022-11-02T21:26:57.682Z,8.65
2022-11-02T21:29:25.065Z,7.20
2022-11-02T21:31:52.256Z,9.45
2022-11-02T21:34:21.255Z,7.38
2022-11-02T21:36:49.010Z,7.90
2022-11-02T21:39:16.784Z,8.18
2022-11-02T21:41:44.321Z,8.48
2022-11-02T21:44:12.153Z,8.50
2022-11-02T21:46:39.705Z,8.32
2022-11-02T21:49:07.346Z,9.07
2022-11-02T21:51:36.317Z,8.15
2022-11-02T21:54:06.820Z,8.98
2022-11-02T21:56:36.070Z,8.50
2022-11-02T21:59:05.420Z,8.30
2022-11-02T22:01:47.271Z,7.55
2022-11-02T22:04:19.646Z,8.07
2022-11-02T22:06:48.206Z,8.57
2022-11-02T22:09:15.975Z,8.40
2022-11-02T22:11:45.162Z,8.63
2022-11-02T22:14:13.756Z,8.27
2022-11-02T22:16:42.710Z,9.05
2022-11-02T22:19:14.700Z,8.18
2022-11-02T22:21:44.973Z,9.73
2022-11-02T22:24:12.661Z,9.13
2022-11-02T22:26:40.954Z,8.52
2022-11-02T22:29:09.592Z,9.80
2022-11-02T22:31:41.923Z,9.52
2022-11-02T22:34:11.651Z,9.13
2022-11-02T22:36:42.061Z,10.20
2022-11-02T22:39:12.892Z,8.85
2022-11-02T22:41:42.587Z,8.48
2022-11-02T22:44:12.405Z,9.30
2022-11-02T22:46:42.388Z,8.27
2022-11-02T22:49:11.123Z,9.60
2022-11-02T22:51:41.275Z,9.30
2022-11-02T22:54:11.936Z,9.38
2022-11-02T22:56:39.386Z,9.50
2022-11-02T22:59:07.223Z,8.90
2022-11-02T23:01:36.382Z,9.82
2022-11-02T23:04:05.159Z,8.93
2022-11-02T23:06:33.603Z,9.52
2022-11-02T23:09:01.900Z,9.45
2022-11-02T23:11:33.107Z,7.45
2022-11-02T23:14:04.733Z,8.52
2022-11-02T23:16:43.900Z,9.63
2022-11-02T23:19:31.330Z,8.63
2022-11-02T23:22:26.590Z,8.63
2022-11-02T23:25:15.207Z,7.90
2022-11-02T23:28:03.894Z,8.50
2022-11-02T23:30:55.754Z,8.05
2022-11-02T23:33:25.589Z,8.57
2022-11-02T23:36:11.123Z,8.88
2022-11-02T23:39:04.225Z,9.07
2022-11-02T23:41:33.278Z,8.15
2022-11-02T23:44:14.173Z,8.57
2022-11-02T23:46:43.255Z,7.75
2022-11-02T23:49:11.721Z,8.73
2022-11-02T23:51:58.026Z,7.75
2022-11-02T23:54:44.394Z,7.93
2022-11-02T23:57:13.185Z,7.88
2022-11-02T23:59:40.728Z,8.40
